createdAt,value
2022-07-30T00:00:39.713Z,96384.97
2022-07-30T00:03:08.341Z,96380.19
2022-07-30T00:05:36.912Z,96377.03
2022-07-30T00:08:05.651Z,96381.16
2022-07-30T00:10:34.195Z,96373.09
2022-07-30T00:13:02.640Z,96365.41
2022-07-30T00:15:32.613Z,96367.03
2022-07-30T00:18:01.091Z,96366.22
2022-07-30T00:20:29.838Z,96367.38
2022-07-30T00:23:04.018Z,96365.97
2022-07-30T00:25:33.901Z,96366.66
2022-07-30T00:28:02.523Z,96366.06
2022-07-30T00:30:32.674Z,96369.22
2022-07-30T00:33:01.668Z,96377.59
2022-07-30T00:35:30.195Z,96368.56
2022-07-30T00:37:58.688Z,96372.09
2022-07-30T00:40:27.408Z,96384.03
2022-07-30T00:42:56.046Z,96376.19
2022-07-30T00:45:24.526Z,96384.25
2022-07-30T00:47:54.435Z,96364.63
2022-07-30T00:50:22.924Z,96371.50
2022-07-30T00:52:52.484Z,96368.22
2022-07-30T00:55:21.018Z,96368.22
2022-07-30T00:57:49.548Z,96376.28
2022-07-30T01:00:19.983Z,96368.22
2022-07-30T01:02:48.564Z,96371.94
2022-07-30T01:05:18.605Z,96369.97
2022-07-30T01:07:47.757Z,96374.16
2022-07-30T01:10:17.295Z,96371.09
2022-07-30T01:12:48.067Z,96364.66
2022-07-30T01:15:17.208Z,96368.63
2022-07-30T01:17:49.135Z,96359.75
2022-07-30T01:20:26.937Z,96357.88
2022-07-30T01:23:03.576Z,96361.59
2022-07-30T01:25:56.714Z,96358.47
2022-07-30T01:28:28.839Z,96362.19
2022-07-30T01:30:59.156Z,96356.00
2022-07-30T01:33:28.939Z,96356.00
2022-07-30T01:35:59.375Z,96362.66
2022-07-30T01:38:31.081Z,96354.47
2022-07-30T01:41:07.598Z,96357.84
2022-07-30T01:43:37.072Z,96360.53
2022-07-30T01:46:07.094Z,96351.69
2022-07-30T01:48:40.614Z,96355.19
2022-07-30T01:51:11.236Z,96358.25
2022-07-30T01:53:42.147Z,96352.88
2022-07-30T01:56:16.903Z,96355.38
2022-07-30T01:58:51.734Z,96348.13
2022-07-30T02:01:20.367Z,96355.16
2022-07-30T02:03:49.107Z,96350.81
2022-07-30T02:06:22.797Z,96347.50
2022-07-30T02:08:55.619Z,96343.81
2022-07-30T02:11:39.543Z,96345.44
2022-07-30T02:14:22.089Z,96343.00
2022-07-30T02:16:54.251Z,96340.91
2022-07-30T02:19:26.346Z,96328.09
2022-07-30T02:22:06.822Z,96332.03
2022-07-30T02:24:39.679Z,96323.97
2022-07-30T02:27:16.099Z,96326.66
2022-07-30T02:29:47.134Z,96320.66
2022-07-30T02:32:20.148Z,96318.91
2022-07-30T02:34:53.380Z,96321.91
2022-07-30T02:37:41.139Z,96318.84
2022-07-30T02:40:16.704Z,96327.13
2022-07-30T02:42:50.397Z,96318.03
2022-07-30T02:45:19.536Z,96324.00
2022-07-30T02:47:52.599Z,96317.19
2022-07-30T02:50:22.349Z,96321.97
2022-07-30T02:52:52.363Z,96309.81
2022-07-30T02:55:22.784Z,96308.22
2022-07-30T02:57:54.902Z,96306.13
2022-07-30T03:00:25.364Z,96313.09
2022-07-30T03:02:56.920Z,96315.41
2022-07-30T03:05:26.315Z,96307.84
2022-07-30T03:07:56.185Z,96301.28
2022-07-30T03:10:27.395Z,96309.19
2022-07-30T03:12:59.518Z,96299.72
2022-07-30T03:15:29.850Z,96299.56
2022-07-30T03:17:59.533Z,96292.66
2022-07-30T03:20:31.953Z,96301.00
2022-07-30T03:23:03.775Z,96292.56
2022-07-30T03:25:34.059Z,96300.03
2022-07-30T03:28:06.197Z,96296.97
2022-07-30T03:30:35.711Z,96305.69
2022-07-30T03:33:06.546Z,96300.00
2022-07-30T03:35:35.666Z,96301.06
2022-07-30T03:38:06.887Z,96301.66
2022-07-30T03:40:35.869Z,96300.16
2022-07-30T03:43:06.199Z,96298.50
2022-07-30T03:45:55.847Z,96305.75
2022-07-30T03:48:25.047Z,96299.34
2022-07-30T03:50:55.028Z,96311.50
2022-07-30T03:53:25.057Z,96309.25
2022-07-30T03:55:54.783Z,96304.94
2022-07-30T03:58:24.685Z,96314.59
2022-07-30T04:00:53.249Z,96305.53
2022-07-30T04:03:28.451Z,96305.44
2022-07-30T04:05:57.282Z,96320.28
2022-07-30T04:08:25.914Z,96324.16
2022-07-30T04:10:54.484Z,96318.34
2022-07-30T04:13:24.361Z,96311.94
2022-07-30T04:16:38.757Z,96322.84
2022-07-30T04:18:57.280Z,96327.72
2022-07-30T04:21:27.958Z,96325.22
2022-07-30T04:24:02.311Z,96320.00
2022-07-30T04:26:36.077Z,96327.16
2022-07-30T04:29:08.687Z,96328.41
2022-07-30T04:31:40.619Z,96331.91
2022-07-30T04:34:09.950Z,96336.81
2022-07-30T04:36:38.421Z,96343.84
2022-07-30T04:39:07.096Z,96343.16
2022-07-30T04:41:48.439Z,96348.50
2022-07-30T04:44:21.172Z,96349.19
2022-07-30T04:46:49.802Z,96354.34
2022-07-30T04:49:20.204Z,96351.13
2022-07-30T04:51:50.884Z,96346.50
2022-07-30T04:54:21.635Z,96354.09
2022-07-30T04:56:53.587Z,96362.16
2022-07-30T04:59:26.445Z,96360.13
2022-07-30T05:01:58.665Z,96364.47
2022-07-30T05:04:29.276Z,96366.94
2022-07-30T05:06:58.942Z,96370.63
2022-07-30T05:09:28.102Z,96377.06
2022-07-30T05:11:59.413Z,96376.22
2022-07-30T05:14:29.827Z,96375.63
2022-07-30T05:16:58.899Z,96386.84
2022-07-30T05:19:27.660Z,96384.59
2022-07-30T05:21:56.148Z,96387.28
2022-07-30T05:24:24.767Z,96388.97
2022-07-30T05:26:53.389Z,96394.81
2022-07-30T05:29:22.147Z,96393.69
2022-07-30T05:31:53.816Z,96393.59
2022-07-30T05:34:22.451Z,96388.63
2022-07-30T05:36:51.098Z,96391.91
2022-07-30T05:39:19.599Z,96396.66
2022-07-30T05:41:48.145Z,96395.25
2022-07-30T05:44:19.687Z,96399.13
2022-07-30T05:46:50.887Z,96399.34
2022-07-30T05:49:20.875Z,96389.66
2022-07-30T05:51:50.494Z,96395.97
2022-07-30T05:54:18.991Z,96396.13
2022-07-30T05:56:48.047Z,96403.06
2022-07-30T05:59:16.638Z,96400.78
2022-07-30T06:01:45.173Z,96403.47
2022-07-30T06:04:13.752Z,96409.88
2022-07-30T06:06:43.617Z,96410.47
2022-07-30T06:09:13.127Z,96415.19
2022-07-30T06:11:41.608Z,96417.56
2022-07-30T06:14:10.092Z,96424.09
2022-07-30T06:16:38.628Z,96416.19
2022-07-30T06:19:07.109Z,96419.59
2022-07-30T06:22:05.910Z,96423.50
2022-07-30T06:24:25.389Z,96423.13
2022-07-30T06:26:57.782Z,96431.31
2022-07-30T06:29:26.481Z,96426.91
2022-07-30T06:31:55.093Z,96424.59
2022-07-30T06:34:23.768Z,96432.78
2022-07-30T06:36:52.316Z,96430.09
2022-07-30T06:39:56.710Z,96437.34
2022-07-30T06:42:10.704Z,96440.47
2022-07-30T06:44:39.174Z,96447.25
2022-07-30T06:47:08.892Z,96450.31
2022-07-30T06:49:38.399Z,96451.59
2022-07-30T06:52:07.417Z,96443.91
2022-07-30T06:54:35.877Z,96455.63
2022-07-30T06:57:04.670Z,96456.53
2022-07-30T06:59:34.512Z,96445.78
2022-07-30T07:02:23.113Z,96450.63
2022-07-30T07:04:51.690Z,96449.88
2022-07-30T07:07:40.331Z,96455.59
2022-07-30T07:10:09.943Z,96457.47
2022-07-30T07:12:38.508Z,96448.25
2022-07-30T07:15:09.896Z,96453.22
2022-07-30T07:17:38.351Z,96456.72
2022-07-30T07:20:07.994Z,96454.59
2022-07-30T07:22:36.408Z,96461.09
2022-07-30T07:25:05.661Z,96458.63
2022-07-30T07:27:37.464Z,96452.44
2022-07-30T07:30:09.088Z,96453.38
2022-07-30T07:32:37.802Z,96459.78
2022-07-30T07:35:07.110Z,96464.69
2022-07-30T07:37:35.910Z,96458.63
2022-07-30T07:40:05.644Z,96461.91
2022-07-30T07:42:34.148Z,96461.56
2022-07-30T07:45:02.888Z,96460.28
2022-07-30T07:47:33.054Z,96460.56
2022-07-30T07:50:01.559Z,96465.84
2022-07-30T07:52:30.068Z,96460.63
2022-07-30T07:54:58.647Z,96452.56
2022-07-30T07:57:27.838Z,96455.19
2022-07-30T07:59:56.445Z,96452.97
2022-07-30T08:02:25.959Z,96453.69
2022-07-30T08:04:55.908Z,96460.81
2022-07-30T08:07:24.524Z,96468.66
2022-07-30T08:09:53.208Z,96464.34
2022-07-30T08:12:21.936Z,96455.78
2022-07-30T08:14:51.192Z,96466.69
2022-07-30T08:17:19.856Z,96460.59
2022-07-30T08:19:49.857Z,96475.59
2022-07-30T08:22:19.774Z,96470.19
2022-07-30T08:24:48.205Z,96476.97
2022-07-30T08:27:16.708Z,96476.53
2022-07-30T08:29:45.345Z,96475.72
2022-07-30T08:32:13.999Z,96477.47
2022-07-30T08:34:42.509Z,96481.09
2022-07-30T08:37:11.355Z,96483.31
2022-07-30T08:39:44.105Z,96470.56
2022-07-30T08:42:14.689Z,96473.50
2022-07-30T08:44:46.258Z,96471.88
2022-07-30T08:47:18.450Z,96476.47
2022-07-30T08:49:47.700Z,96473.63
2022-07-30T08:52:16.742Z,96476.44
2022-07-30T08:54:47.225Z,96474.44
2022-07-30T08:57:16.672Z,96473.75
2022-07-30T08:59:59.044Z,96468.34
2022-07-30T09:02:31.662Z,96463.78
2022-07-30T09:05:00.301Z,96475.59
2022-07-30T09:07:28.933Z,96474.78
2022-07-30T09:09:59.113Z,96469.63
2022-07-30T09:12:37.836Z,96472.44
2022-07-30T09:15:08.895Z,96468.56
2022-07-30T09:17:55.289Z,96477.69
2022-07-30T09:20:25.972Z,96472.97
2022-07-30T09:22:56.136Z,96478.09
2022-07-30T09:25:40.905Z,96474.78
2022-07-30T09:28:16.102Z,96476.56
2022-07-30T09:30:48.236Z,96479.75
2022-07-30T09:33:18.913Z,96480.69
2022-07-30T09:35:57.185Z,96479.75
2022-07-30T09:38:26.284Z,96467.25
2022-07-30T09:40:58.160Z,96467.34
2022-07-30T09:43:28.147Z,96468.34
2022-07-30T09:46:00.527Z,96462.63
2022-07-30T09:48:29.807Z,96468.94
2022-07-30T09:50:58.423Z,96474.22
2022-07-30T09:53:28.603Z,96479.63
2022-07-30T09:56:00.892Z,96455.44
2022-07-30T09:58:45.566Z,96456.78
2022-07-30T10:01:14.835Z,96465.84
2022-07-30T10:03:44.461Z,96457.44
2022-07-30T10:06:15.381Z,96459.50
2022-07-30T10:08:46.956Z,96454.91
2022-07-30T10:11:23.638Z,96457.94
2022-07-30T10:13:55.942Z,96454.00
2022-07-30T10:16:27.255Z,96452.09
2022-07-30T10:19:00.125Z,96449.41
2022-07-30T10:21:32.664Z,96441.53
2022-07-30T10:24:06.845Z,96443.66
2022-07-30T10:26:38.063Z,96444.81
2022-07-30T10:29:07.026Z,96443.94
2022-07-30T10:31:49.548Z,96448.78
2022-07-30T10:34:23.624Z,96434.97
2022-07-30T10:36:58.859Z,96436.84
2022-07-30T10:39:34.775Z,96439.13
2022-07-30T10:42:16.918Z,96436.00
2022-07-30T10:45:02.530Z,96441.28
2022-07-30T10:47:40.469Z,96439.97
2022-07-30T10:50:15.795Z,96437.59
2022-07-30T10:52:46.945Z,96448.56
2022-07-30T10:55:16.274Z,96442.75
2022-07-30T10:58:06.601Z,96452.16
2022-07-30T11:00:38.343Z,96438.69
2022-07-30T11:03:43.945Z,96449.31
2022-07-30T11:06:28.659Z,96445.31
2022-07-30T11:08:58.306Z,96448.59
2022-07-30T11:12:01.366Z,96453.28
2022-07-30T11:15:06.857Z,96437.91
2022-07-30T11:18:12.089Z,96437.78
2022-07-30T11:20:43.253Z,96427.56
2022-07-30T11:23:39.998Z,96438.09
2022-07-30T11:26:14.140Z,96445.41
2022-07-30T11:28:45.230Z,96442.16
2022-07-30T11:32:07.458Z,96432.69
2022-07-30T11:34:31.298Z,96429.03
2022-07-30T11:37:21.583Z,96439.22
2022-07-30T11:40:13.931Z,96435.34
2022-07-30T11:42:43.727Z,96446.38
2022-07-30T11:45:29.475Z,96436.84
2022-07-30T11:48:03.651Z,96431.09
2022-07-30T11:50:34.209Z,96428.72
2022-07-30T11:53:05.001Z,96424.25
2022-07-30T11:55:36.987Z,96421.72
2022-07-30T11:58:07.711Z,96423.09
2022-07-30T12:00:39.788Z,96427.09
2022-07-30T12:03:15.447Z,96424.25
2022-07-30T12:05:44.822Z,96426.38
2022-07-30T12:08:35.356Z,96422.53
2022-07-30T12:11:02.880Z,96430.94
2022-07-30T12:13:42.882Z,96431.75
2022-07-30T12:16:15.917Z,96424.75
2022-07-30T12:18:46.960Z,96429.03
2022-07-30T12:21:16.867Z,96431.94
2022-07-30T12:23:56.546Z,96427.81
2022-07-30T12:26:27.182Z,96426.47
2022-07-30T12:28:56.959Z,96429.91
2022-07-30T12:31:25.625Z,96419.47
2022-07-30T12:33:59.056Z,96415.47
2022-07-30T12:36:30.946Z,96422.34
2022-07-30T12:39:00.284Z,96420.50
2022-07-30T12:41:46.352Z,96420.25
2022-07-30T12:44:36.594Z,96417.81
2022-07-30T12:47:06.530Z,96415.38
2022-07-30T12:49:48.915Z,96412.69
2022-07-30T12:52:28.187Z,96416.75
2022-07-30T12:55:02.391Z,96416.47
2022-07-30T12:57:58.024Z,96416.94
2022-07-30T13:00:28.923Z,96419.53
2022-07-30T13:02:58.343Z,96420.06
2022-07-30T13:05:47.518Z,96418.13
2022-07-30T13:08:16.135Z,96418.38
2022-07-30T13:10:58.255Z,96411.53
2022-07-30T13:13:27.907Z,96418.28
2022-07-30T13:16:01.863Z,96419.78
2022-07-30T13:18:31.547Z,96420.19
2022-07-30T13:21:02.466Z,96422.91
2022-07-30T13:23:31.032Z,96425.25
2022-07-30T13:25:59.598Z,96425.19
2022-07-30T13:28:29.831Z,96431.69
2022-07-30T13:30:58.431Z,96448.44
2022-07-30T13:33:27.023Z,96436.19
2022-07-30T13:35:55.548Z,96432.81
2022-07-30T13:38:25.460Z,96420.00
2022-07-30T13:40:56.111Z,96425.03
2022-07-30T13:43:26.664Z,96414.03
2022-07-30T13:45:59.899Z,96415.91
2022-07-30T13:48:28.638Z,96406.03
2022-07-30T13:50:57.344Z,96408.88
2022-07-30T13:53:27.283Z,96412.53
2022-07-30T13:55:55.931Z,96413.06
2022-07-30T13:58:24.422Z,96406.25
2022-07-30T14:00:53.011Z,96403.13
2022-07-30T14:03:21.574Z,96402.16
2022-07-30T14:05:50.193Z,96400.06
2022-07-30T14:08:18.692Z,96407.75
2022-07-30T14:10:48.643Z,96401.28
2022-07-30T14:13:20.956Z,96392.91
2022-07-30T14:15:50.260Z,96399.97
2022-07-30T14:18:18.884Z,96386.16
2022-07-30T14:20:48.834Z,96395.91
2022-07-30T14:23:18.099Z,96399.16
2022-07-30T14:25:48.660Z,96392.16
2022-07-30T14:28:17.392Z,96406.56
2022-07-30T14:30:45.914Z,96394.88
2022-07-30T14:33:14.399Z,96391.63
2022-07-30T14:35:42.956Z,96387.56
2022-07-30T14:38:11.459Z,96389.72
2022-07-30T14:40:39.976Z,96387.53
2022-07-30T14:43:09.949Z,96384.25
2022-07-30T14:45:39.274Z,96395.41
2022-07-30T14:48:07.950Z,96382.38
2022-07-30T14:50:46.701Z,96385.38
2022-07-30T14:53:24.899Z,96381.56
2022-07-30T14:55:53.359Z,96387.00
2022-07-30T14:58:23.620Z,96375.84
2022-07-30T15:00:52.285Z,96387.50
2022-07-30T15:03:22.180Z,96379.88
2022-07-30T15:05:52.463Z,96383.13
2022-07-30T15:08:21.202Z,96380.16
2022-07-30T15:10:49.887Z,96388.03
2022-07-30T15:13:18.572Z,96390.47
2022-07-30T15:15:50.410Z,96390.50
2022-07-30T15:18:19.116Z,96391.31
2022-07-30T15:20:47.875Z,96401.91
2022-07-30T15:23:16.370Z,96397.56
2022-07-30T15:25:45.869Z,96409.00
2022-07-30T15:28:14.425Z,96403.56
2022-07-30T15:30:43.196Z,96411.66
2022-07-30T15:33:13.171Z,96407.31
2022-07-30T15:35:41.579Z,96412.28
2022-07-30T15:38:10.053Z,96402.50
2022-07-30T15:40:38.612Z,96399.22
2022-07-30T15:43:10.108Z,96398.38
2022-07-30T15:45:56.002Z,96400.31
2022-07-30T15:48:27.644Z,96402.75
2022-07-30T15:51:02.839Z,96394.88
2022-07-30T15:53:32.195Z,96394.84
2022-07-30T15:56:01.512Z,96394.34
2022-07-30T15:58:30.128Z,96398.13
2022-07-30T16:00:58.610Z,96394.88
2022-07-30T16:03:28.544Z,96396.78
2022-07-30T16:05:57.047Z,96393.25
2022-07-30T16:08:25.638Z,96395.97
2022-07-30T16:10:54.095Z,96392.97
2022-07-30T16:13:22.708Z,96390.28
2022-07-30T16:15:51.322Z,96388.91
2022-07-30T16:18:19.816Z,96397.06
2022-07-30T16:20:49.875Z,96390.81
2022-07-30T16:23:21.584Z,96390.78
2022-07-30T16:25:50.460Z,96392.38
2022-07-30T16:28:18.939Z,96395.63
2022-07-30T16:30:51.343Z,96400.75
2022-07-30T16:33:20.610Z,96401.28
2022-07-30T16:35:50.864Z,96395.91
2022-07-30T16:38:20.411Z,96401.88
2022-07-30T16:40:48.931Z,96403.22
2022-07-30T16:43:19.820Z,96409.19
2022-07-30T16:45:48.817Z,96404.28
2022-07-30T16:48:17.380Z,96411.03
2022-07-30T16:50:45.891Z,96407.47
2022-07-30T16:53:16.264Z,96404.13
2022-07-30T16:55:45.589Z,96403.84
2022-07-30T16:58:14.676Z,96403.09
2022-07-30T17:00:43.513Z,96406.66
2022-07-30T17:03:12.150Z,96404.50
2022-07-30T17:05:49.035Z,96405.88
2022-07-30T17:08:19.242Z,96413.47
2022-07-30T17:10:53.833Z,96409.41
2022-07-30T17:13:22.980Z,96403.72
2022-07-30T17:15:51.589Z,96407.75
2022-07-30T17:18:20.332Z,96413.38
2022-07-30T17:20:49.037Z,96406.50
2022-07-30T17:23:18.975Z,96408.03
2022-07-30T17:25:47.490Z,96406.88
2022-07-30T17:28:18.088Z,96406.78
2022-07-30T17:30:47.127Z,96413.16
2022-07-30T17:33:15.593Z,96405.75
2022-07-30T17:35:44.215Z,96419.72
2022-07-30T17:38:12.742Z,96410.72
2022-07-30T17:40:42.629Z,96407.63
2022-07-30T17:43:13.881Z,96411.59
2022-07-30T17:45:43.627Z,96405.47
2022-07-30T17:48:12.191Z,96403.25
2022-07-30T17:50:40.782Z,96401.31
2022-07-30T17:53:09.823Z,96412.31
2022-07-30T17:55:38.356Z,96413.88
2022-07-30T17:58:08.307Z,96408.06
2022-07-30T18:00:36.923Z,96419.56
2022-07-30T18:03:05.502Z,96428.94
2022-07-30T18:05:34.138Z,96435.91
2022-07-30T18:08:02.691Z,96429.94
2022-07-30T18:10:31.331Z,96439.31
2022-07-30T18:12:59.815Z,96452.50
2022-07-30T18:15:50.005Z,96457.41
2022-07-30T18:18:18.568Z,96467.50
2022-07-30T18:20:48.576Z,96467.09
2022-07-30T18:23:19.208Z,96477.94
2022-07-30T18:25:53.181Z,96478.50
2022-07-30T18:28:23.106Z,96489.84
2022-07-30T18:30:55.054Z,96488.38
2022-07-30T18:33:23.615Z,96501.97
2022-07-30T18:35:52.347Z,96510.19
2022-07-30T18:38:20.888Z,96510.28
2022-07-30T18:40:58.579Z,96492.91
2022-07-30T18:43:27.971Z,96496.59
2022-07-30T18:46:00.292Z,96491.94
2022-07-30T18:48:29.306Z,96503.56
2022-07-30T18:50:57.889Z,96494.22
2022-07-30T18:53:26.432Z,96486.47
2022-07-30T18:55:55.065Z,96482.03
2022-07-30T18:58:24.047Z,96472.19
2022-07-30T19:00:53.602Z,96480.06
2022-07-30T19:03:25.389Z,96498.34
2022-07-30T19:05:54.003Z,96515.03
2022-07-30T19:08:22.765Z,96513.00
2022-07-30T19:10:51.607Z,96523.91
2022-07-30T19:13:23.404Z,96518.69
2022-07-30T19:15:52.276Z,96517.97
2022-07-30T19:18:21.585Z,96513.53
2022-07-30T19:20:51.810Z,96511.53
2022-07-30T19:23:22.087Z,96503.22
2022-07-30T19:25:50.552Z,96508.50
2022-07-30T19:28:19.253Z,96506.94
2022-07-30T19:30:48.189Z,96528.38
2022-07-30T19:33:16.745Z,96564.56
2022-07-30T19:35:45.811Z,96592.94
2022-07-30T19:38:22.017Z,96613.75
2022-07-30T19:40:53.073Z,96616.84
2022-07-30T19:43:24.044Z,96615.72
2022-07-30T19:45:53.384Z,96622.81
2022-07-30T19:48:29.621Z,96634.03
2022-07-30T19:50:59.276Z,96621.09
2022-07-30T19:53:34.100Z,96612.78
2022-07-30T19:56:10.649Z,96605.09
2022-07-30T19:58:40.514Z,96601.91
2022-07-30T20:01:09.815Z,96579.47
2022-07-30T20:03:39.074Z,96574.09
2022-07-30T20:06:08.816Z,96561.75
2022-07-30T20:08:45.195Z,96563.63
2022-07-30T20:11:21.219Z,96590.41
2022-07-30T20:14:03.208Z,96591.25
2022-07-30T20:16:31.910Z,96598.69
2022-07-30T20:19:00.516Z,96607.13
2022-07-30T20:21:56.826Z,96593.78
2022-07-30T20:24:23.641Z,96569.47
2022-07-30T20:26:52.252Z,96582.63
2022-07-30T20:29:20.907Z,96569.47
2022-07-30T20:31:50.141Z,96558.34
2022-07-30T20:34:20.783Z,96584.47
2022-07-30T20:36:52.961Z,96571.13
2022-07-30T20:39:24.050Z,96555.88
2022-07-30T20:42:07.891Z,96555.06
2022-07-30T20:44:37.939Z,96554.66
2022-07-30T20:47:08.419Z,96562.47
2022-07-30T20:49:37.143Z,96564.97
2022-07-30T20:52:07.358Z,96569.09
2022-07-30T20:54:37.759Z,96563.31
2022-07-30T20:57:15.620Z,96571.34
2022-07-30T20:59:44.557Z,96591.94
2022-07-30T21:02:15.230Z,96584.31
2022-07-30T21:04:46.341Z,96587.00
2022-07-30T21:07:15.091Z,96585.72
2022-07-30T21:09:52.588Z,96578.31
2022-07-30T21:12:32.721Z,96580.16
2022-07-30T21:15:01.857Z,96577.25
2022-07-30T21:17:30.362Z,96582.19
2022-07-30T21:19:58.918Z,96586.72
2022-07-30T21:22:29.668Z,96578.44
2022-07-30T21:24:59.893Z,96569.75
2022-07-30T21:27:29.910Z,96582.09
2022-07-30T21:29:58.600Z,96575.28
2022-07-30T21:32:28.546Z,96579.81
2022-07-30T21:34:57.203Z,96590.31
2022-07-30T21:37:36.665Z,96594.84
2022-07-30T21:40:08.112Z,96615.06
2022-07-30T21:42:37.379Z,96617.56
2022-07-30T21:45:17.309Z,96620.25
2022-07-30T21:47:48.033Z,96611.19
2022-07-30T21:50:16.707Z,96601.50
2022-07-30T21:52:45.610Z,96598.97
2022-07-30T21:55:15.518Z,96594.78
2022-07-30T21:57:44.055Z,96600.75
2022-07-30T22:00:21.868Z,96579.03
2022-07-30T22:02:52.892Z,96584.78
2022-07-30T22:05:23.858Z,96576.09
2022-07-30T22:08:08.627Z,96572.56
2022-07-30T22:10:41.457Z,96586.19
2022-07-30T22:13:10.351Z,96592.13
2022-07-30T22:15:38.988Z,96598.97
2022-07-30T22:18:08.005Z,96603.53
2022-07-30T22:20:37.030Z,96599.88
2022-07-30T22:23:08.535Z,96596.38
2022-07-30T22:25:39.789Z,96593.56
2022-07-30T22:28:14.582Z,96592.75
2022-07-30T22:30:45.918Z,96588.00
2022-07-30T22:33:16.554Z,96588.81
2022-07-30T22:35:49.786Z,96586.97
2022-07-30T22:38:19.786Z,96588.22
2022-07-30T22:40:49.471Z,96575.66
2022-07-30T22:43:19.499Z,96580.81
2022-07-30T22:45:50.006Z,96587.84
2022-07-30T22:48:20.747Z,96585.81
2022-07-30T22:50:55.555Z,96591.59
2022-07-30T22:54:11.308Z,96582.13
2022-07-30T22:56:14.101Z,96594.31
2022-07-30T22:58:48.731Z,96590.38
2022-07-30T23:01:18.568Z,96592.69
2022-07-30T23:03:48.128Z,96585.66
2022-07-30T23:06:16.762Z,96588.56
2022-07-30T23:08:49.289Z,96586.28
2022-07-30T23:11:18.154Z,96583.97
2022-07-30T23:13:48.103Z,96574.91
2022-07-30T23:16:16.594Z,96581.28
2022-07-30T23:18:45.268Z,96583.59
2022-07-30T23:21:14.162Z,96582.75
2022-07-30T23:23:42.622Z,96585.66
2022-07-30T23:26:11.133Z,96585.47
2022-07-30T23:28:39.647Z,96583.84
2022-07-30T23:31:09.822Z,96583.84
2022-07-30T23:33:38.309Z,96584.28
2022-07-30T23:36:08.074Z,96578.31
2022-07-30T23:38:37.105Z,96579.13
2022-07-30T23:41:06.813Z,96574.19
2022-07-30T23:43:35.907Z,96573.56
2022-07-30T23:46:05.029Z,96572.16
2022-07-30T23:48:39.681Z,96578.34
2022-07-30T23:51:08.666Z,96575.91
2022-07-30T23:53:37.284Z,96575.03
2022-07-30T23:56:06.123Z,96582.44
2022-07-30T23:58:34.774Z,96574.41
